Time;durP1;ratioP1;P1;durP2;ratioP2;P2;SDS_P1;SDS_P2;PMS_P1;PMS_P2;Temp;Humidity;BMP_temperature;BMP_pressure;BME280_temperature;BME280_humidity;BME280_pressure;Samples;Min_cycle;Max_cycle;Signal;HPM_P1;HPM_P2
2021/09/26 07:13:03;;;;;;;16.00;13.93;;;16.30;99.90;;;;;;6315454;27;20415;-81
2021/09/26 07:16:04;;;;;;;18.70;13.95;;;16.30;99.90;;;;;;6313500;28;20036;-81
2021/09/26 07:19:05;;;;;;;20.13;15.13;;;16.20;99.90;;;;;;6311473;28;20032;-82
2021/09/26 07:22:06;;;;;;;18.58;14.90;;;;;;;;;;6295361;28;20020;-82
2021/09/26 07:25:07;;;;;;;16.35;14.43;;;16.50;99.90;;;;;;6313039;28;20133;-81
2021/09/26 07:28:08;;;;;;;19.45;14.77;;;16.30;99.90;;;;;;6296297;28;20032;-81
2021/09/26 07:31:15;;;;;;;16.30;14.45;;;16.40;99.90;;;;;;6312636;28;20047;-80
2021/09/26 07:34:16;;;;;;;20.05;14.82;;;16.50;99.90;;;;;;6313058;28;20123;-82
2021/09/26 07:37:17;;;;;;;18.83;14.65;;;16.30;99.90;;;;;;6296284;28;20450;-81
2021/09/26 07:40:18;;;;;;;16.80;13.68;;;;;;;;;;6296298;28;20020;-80
2021/09/26 07:43:18;;;;;;;16.98;14.43;;;16.30;99.90;;;;;;6296061;28;20162;-80
2021/09/26 07:46:19;;;;;;;16.48;13.40;;;16.60;99.90;;;;;;6295479;28;20386;-81
2021/09/26 07:49:20;;;;;;;15.50;13.38;;;16.50;99.90;;;;;;6293515;28;20060;-80
2021/09/26 07:52:21;;;;;;;16.55;12.57;;;16.50;99.90;;;;;;6310441;28;20553;-78
2021/09/26 07:55:21;;;;;;;17.95;12.70;;;16.60;99.90;;;;;;6312613;28;20032;-80
2021/09/26 07:58:22;;;;;;;15.75;13.98;;;16.60;99.90;;;;;;6278371;28;20032;-79
2021/09/26 08:01:23;;;;;;;15.10;12.60;;;16.70;99.90;;;;;;6278568;28;20175;-79
2021/09/26 08:04:23;;;;;;;16.40;13.02;;;16.70;99.90;;;;;;6313242;28;20028;-80
2021/09/26 08:07:24;;;;;;;15.13;12.95;;;16.80;99.90;;;;;;6295257;28;20021;-79
2021/09/26 08:10:24;;;;;;;13.85;12.40;;;16.90;99.90;;;;;;6315297;28;20064;-80
2021/09/26 08:13:25;;;;;;;16.13;13.05;;;16.90;99.90;;;;;;6320249;28;20027;-80
2021/09/26 08:16:25;;;;;;;13.65;12.25;;;17.00;99.90;;;;;;6337249;28;20035;-79
2021/09/26 08:19:26;;;;;;;13.45;12.05;;;17.20;99.90;;;;;;6319946;28;20735;-79
2021/09/26 08:22:27;;;;;;;15.30;11.70;;;17.40;99.90;;;;;;6314716;28;20026;-79
2021/09/26 08:25:28;;;;;;;13.00;10.98;;;17.40;99.90;;;;;;6303148;28;20432;-79
2021/09/26 08:28:29;;;;;;;15.13;12.50;;;17.40;99.90;;;;;;6321693;28;20042;-79
2021/09/26 08:31:29;;;;;;;13.38;11.82;;;17.50;99.90;;;;;;6321067;28;20036;-79
2021/09/26 08:34:30;;;;;;;13.38;11.95;;;17.50;99.90;;;;;;6321380;28;20028;-79
2021/09/26 08:37:31;;;;;;;14.93;12.45;;;17.80;99.90;;;;;;6303162;28;20462;-79
2021/09/26 08:40:31;;;;;;;15.52;11.95;;;17.70;99.90;;;;;;6302728;28;20443;-81
2021/09/26 08:43:32;;;;;;;14.60;12.57;;;17.80;99.90;;;;;;6303211;28;20024;-81
2021/09/26 08:46:33;;;;;;;16.38;11.80;;;;;;;;;;6301080;28;20040;-81
2021/09/26 08:49:34;;;;;;;13.77;12.15;;;18.00;99.90;;;;;;6302518;28;20032;-79
2021/09/26 08:52:35;;;;;;;16.77;13.80;;;18.00;99.90;;;;;;6285593;28;20466;-79
2021/09/26 08:55:35;;;;;;;17.33;14.32;;;18.60;99.90;;;;;;6302354;28;20024;-79
2021/09/26 08:58:39;;;;;;;16.92;14.63;;;18.30;99.90;;;;;;6285671;28;20086;-79
2021/09/26 09:01:40;;;;;;;16.83;15.23;;;18.40;99.90;;;;;;6320467;28;20031;-79
2021/09/26 09:04:41;;;;;;;15.98;14.38;;;18.50;99.90;;;;;;6285844;28;20575;-81
2021/09/26 09:07:44;;;;;;;15.15;13.32;;;18.70;99.90;;;;;;6286071;28;20016;-80
2021/09/26 09:10:55;;;;;;;17.40;15.80;;;18.90;99.90;;;;;;6285485;28;20059;-80
2021/09/26 09:13:58;;;;;;;14.52;13.05;;;19.10;99.90;;;;;;6302383;28;20016;-80
2021/09/26 09:16:58;;;;;;;24.17;21.73;;;19.30;99.90;;;;;;6302112;28;20112;-80
2021/09/26 09:20:23;;;;;;;18.35;16.25;;;19.40;99.90;;;;;;6285513;28;20032;-80
2021/09/26 09:23:24;;;;;;;16.52;14.82;;;19.40;99.90;;;;;;6272649;28;20367;-80
2021/09/26 09:26:32;;;;;;;23.00;19.85;;;19.50;99.90;;;;;;6268544;28;20024;-80
2021/09/26 09:29:35;;;;;;;12.13;10.93;;;19.60;99.90;;;;;;6319478;28;20044;-81
2021/09/26 09:32:36;;;;;;;11.68;10.48;;;19.80;99.90;;;;;;6285350;28;20133;-81
2021/09/26 09:35:41;;;;;;;12.80;11.52;;;19.30;99.90;;;;;;6284771;28;20032;-81
2021/09/26 09:38:42;;;;;;;11.95;10.45;;;19.90;99.90;;;;;;6319892;28;20024;-80
2021/09/26 09:41:45;;;;;;;11.90;10.70;;;20.20;99.90;;;;;;6301868;28;20461;-80
2021/09/26 09:44:46;;;;;;;11.60;10.40;;;20.50;99.90;;;;;;6301571;28;20458;-80
2021/09/26 09:48:12;;;;;;;10.23;9.07;;;20.60;99.90;;;;;;6285019;28;20028;-80
2021/09/26 09:51:13;;;;;;;13.73;9.85;;;20.90;99.90;;;;;;6284269;28;20127;-80
2021/09/26 09:54:13;;;;;;;9.80;8.80;;;21.00;99.90;;;;;;6284839;28;20012;-81
2021/09/26 09:57:16;;;;;;;9.80;8.80;;;21.20;99.90;;;;;;6301016;28;20378;-79
2021/09/26 10:00:18;;;;;;;9.90;8.93;;;22.10;99.90;;;;;;6300949;28;20112;-80
2021/09/26 10:03:37;;;;;;;;;;;22.10;99.90;;;;;;6319388;28;20373;-79
2021/09/26 10:06:42;;;;;;;9.35;8.45;;;23.50;99.90;;;;;;6319481;28;19908;-80
2021/09/26 10:09:43;;;;;;;8.77;7.43;;;;;;;;;;6300922;28;20028;-80
2021/09/26 10:12:44;;;;;;;7.68;6.97;;;;;;;;;;6318493;28;20052;-77
2021/09/26 10:15:44;;;;;;;8.02;7.22;;;23.60;99.90;;;;;;6318735;28;20035;-79
2021/09/26 10:18:45;;;;;;;7.72;6.72;;;23.30;99.90;;;;;;6300552;28;20043;-78
2021/09/26 10:21:46;;;;;;;8.48;6.80;;;23.20;99.90;;;;;;6284084;28;20024;-78
2021/09/26 10:24:53;;;;;;;7.35;6.65;;;23.10;99.90;;;;;;6300395;28;20024;-78
2021/09/26 10:27:54;;;;;;;7.43;6.60;;;22.80;99.90;;;;;;6300313;28;20457;-77
2021/09/26 10:30:55;;;;;;;8.13;6.95;;;22.70;99.90;;;;;;6299937;28;20036;-78
2021/09/26 10:33:57;;;;;;;8.73;7.30;;;22.60;99.90;;;;;;6300779;28;20032;-78
2021/09/26 10:36:58;;;;;;;7.32;6.55;;;22.60;99.90;;;;;;6299958;28;20024;-77
2021/09/26 10:39:59;;;;;;;8.15;6.53;;;22.70;99.90;;;;;;6300449;28;20020;-77
2021/09/26 10:43:18;;;;;;;7.40;6.70;;;22.80;99.90;;;;;;6318098;28;20036;-78
2021/09/26 10:46:20;;;;;;;8.23;7.43;;;22.80;99.90;;;;;;6301320;28;20343;-80
2021/09/26 10:49:23;;;;;;;9.88;7.30;;;22.90;99.90;;;;;;6300292;28;20027;-80
2021/09/26 10:52:24;;;;;;;7.15;6.45;;;22.90;99.90;;;;;;6283677;28;20173;-80
2021/09/26 10:55:30;;;;;;;8.95;6.70;;;22.90;99.90;;;;;;6300299;28;20036;-80
2021/09/26 10:58:32;;;;;;;9.00;6.90;;;22.80;99.90;;;;;;6299954;28;20135;-80
2021/09/26 11:01:32;;;;;;;6.85;6.20;;;22.60;99.90;;;;;;6317814;28;20038;-77
2021/09/26 11:04:39;;;;;;;6.93;6.32;;;22.50;99.90;;;;;;6283341;28;20024;-77
2021/09/26 11:07:44;;;;;;;7.28;6.03;;;22.30;99.90;;;;;;6283065;28;20032;-78
2021/09/26 11:10:48;;;;;;;7.72;6.45;;;22.20;99.90;;;;;;6299921;28;20044;-77
2021/09/26 11:13:56;;;;;;;8.23;6.47;;;22.00;99.90;;;;;;6300547;28;20126;-78
2021/09/26 11:16:58;;;;;;;7.35;6.65;;;21.90;99.90;;;;;;6299815;28;20074;-78
2021/09/26 11:19:58;;;;;;;9.73;6.47;;;21.80;99.90;;;;;;6299669;28;20028;-81
2021/09/26 11:23:05;;;;;;;8.82;6.55;;;21.70;99.90;;;;;;6299540;28;20095;-80
2021/09/26 11:26:06;;;;;;;7.35;6.65;;;21.60;99.90;;;;;;6318022;28;20024;-80
2021/09/26 11:29:06;;;;;;;8.52;7.05;;;21.60;99.90;;;;;;6299553;28;20032;-80
2021/09/26 11:32:16;;;;;;;7.38;6.10;;;21.50;99.90;;;;;;6283333;28;20047;-79
2021/09/26 11:35:27;;;;;;;7.20;6.28;;;21.50;99.90;;;;;;6317459;28;20461;-79
2021/09/26 11:38:34;;;;;;;7.15;6.47;;;21.40;99.90;;;;;;6299886;28;20342;-79
2021/09/26 11:41:36;;;;;;;7.18;6.47;;;21.30;99.90;;;;;;6297637;28;20084;-79
2021/09/26 11:44:48;;;;;;;10.77;7.70;;;21.20;99.90;;;;;;6298776;28;20032;-82
2021/09/26 11:47:59;;;;;;;8.40;7.60;;;21.10;99.90;;;;;;6281941;28;20038;-80
2021/09/26 11:51:09;;;;;;;8.48;7.20;;;21.00;99.90;;;;;;6299292;28;20066;-80
2021/09/26 11:54:09;;;;;;;10.90;7.68;;;21.00;99.90;;;;;;6282560;28;20024;-79
2021/09/26 11:57:10;;;;;;;8.30;7.13;;;20.90;99.90;;;;;;6299511;28;20032;-80
2021/09/26 12:00:31;;;;;;;7.72;7.03;;;20.80;99.90;;;;;;6287026;28;20107;-80
2021/09/26 12:03:33;;;;;;;7.72;7.03;;;20.60;99.90;;;;;;6288428;28;20361;-80
2021/09/26 12:06:34;;;;;;;;;;;20.40;99.90;;;;;;6304409;28;20454;-80
2021/09/26 12:09:48;;;;;;;7.63;6.82;;;20.30;99.90;;;;;;6322126;28;19994;-79
2021/09/26 12:12:49;;;;;;;8.27;6.95;;;20.20;99.90;;;;;;6303227;28;20067;-83
2021/09/26 12:15:50;;;;;;;7.93;7.10;;;20.20;99.90;;;;;;6303768;28;20154;-79
2021/09/26 12:18:55;;;;;;;9.75;6.55;;;20.10;99.90;;;;;;6302235;28;20039;-80
2021/09/26 12:22:06;;;;;;;7.63;6.78;;;20.10;99.90;;;;;;6302238;28;20038;-80
2021/09/26 12:25:11;;;;;;;7.40;6.65;;;20.10;99.90;;;;;;6321763;28;20027;-80
2021/09/26 12:28:19;;;;;;;6.90;6.20;;;20.10;99.90;;;;;;6286669;28;20028;-78
2021/09/26 12:31:20;;;;;;;9.57;6.93;;;20.20;99.90;;;;;;6286652;28;20047;-79
2021/09/26 12:34:32;;;;;;;6.63;6.03;;;20.30;99.90;;;;;;6302912;28;20078;-78
2021/09/26 12:37:33;;;;;;;7.45;6.53;;;20.60;99.90;;;;;;6302824;28;20046;-81
2021/09/26 12:40:36;;;;;;;7.47;6.78;;;21.00;99.90;;;;;;6303275;28;20103;-84
2021/09/26 12:43:50;;;;;;;7.47;6.63;;;21.10;99.90;;;;;;6285213;28;20386;-79
2021/09/26 12:46:51;;;;;;;7.03;6.32;;;21.20;99.90;;;;;;6302819;28;20028;-79
2021/09/26 12:49:52;;;;;;;7.40;6.70;;;21.20;99.90;;;;;;6301966;28;20077;-82
2021/09/26 12:52:53;;;;;;;7.60;6.82;;;21.10;99.90;;;;;;6302262;28;20047;-80
2021/09/26 12:55:55;;;;;;;8.90;6.38;;;21.30;99.90;;;;;;6301858;28;20036;-83
2021/09/26 12:58:56;;;;;;;7.68;6.93;;;21.10;99.90;;;;;;6285286;28;20036;-83
2021/09/26 13:02:04;;;;;;;7.38;6.45;;;21.00;99.90;;;;;;6302935;28;20050;-82
2021/09/26 13:05:12;;;;;;;7.78;6.72;;;21.70;99.90;;;;;;6302672;28;20074;-82
2021/09/26 13:08:17;;;;;;;12.55;7.90;;;21.10;99.90;;;;;;6285286;28;20458;-83
2021/09/26 13:11:37;;;;;;;7.43;6.57;;;21.00;99.90;;;;;;6301660;28;20056;-81
2021/09/26 13:14:38;;;;;;;10.27;7.03;;;21.20;99.90;;;;;;6320423;28;20062;-82
2021/09/26 13:17:39;;;;;;;7.70;6.90;;;21.20;99.90;;;;;;6302875;28;20020;-83
2021/09/26 13:20:40;;;;;;;9.60;6.85;;;21.30;99.90;;;;;;6300434;28;20040;-84
2021/09/26 13:23:41;;;;;;;7.72;6.85;;;21.50;99.90;;;;;;6301601;28;20450;-82
2021/09/26 13:26:42;;;;;;;8.32;7.53;;;21.60;99.90;;;;;;6285154;28;20028;-81
2021/09/26 13:29:43;;;;;;;8.52;7.00;;;21.60;99.90;;;;;;6301871;28;20028;-82
2021/09/26 13:33:02;;;;;;;6.93;6.22;;;21.70;99.90;;;;;;6300691;28;20157;-79
2021/09/26 13:36:10;;;;;;;7.00;6.30;;;21.90;99.90;;;;;;6301797;28;20028;-78
2021/09/26 13:39:12;;;;;;;7.75;7.05;;;22.00;99.90;;;;;;6301138;28;20016;-78
2021/09/26 13:42:18;;;;;;;7.30;6.63;;;21.90;99.90;;;;;;6301459;28;20023;-78
2021/09/26 13:45:19;;;;;;;6.75;6.10;;;21.90;99.90;;;;;;6318870;28;20031;-79
2021/09/26 13:48:20;;;;;;;7.50;6.15;;;21.90;99.90;;;;;;6295262;28;20031;-78
2021/09/26 13:51:20;;;;;;;8.90;7.38;;;22.00;99.90;;;;;;6318569;28;20467;-78
2021/09/26 13:54:21;;;;;;;6.93;6.22;;;22.10;99.90;;;;;;6300451;28;20103;-78
2021/09/26 13:57:22;;;;;;;6.57;5.97;;;22.50;99.90;;;;;;6300695;28;20038;-77
2021/09/26 14:00:22;;;;;;;7.10;6.50;;;22.20;99.90;;;;;;6301400;28;20497;-77
2021/09/26 14:03:23;;;;;;;6.65;6.05;;;22.10;99.90;;;;;;6319468;28;20023;-77
2021/09/26 14:06:24;;;;;;;6.95;6.18;;;21.90;99.90;;;;;;6319736;28;20524;-78
2021/09/26 14:09:25;;;;;;;9.10;7.20;;;21.90;99.90;;;;;;6284359;28;20016;-79
2021/09/26 14:12:25;;;;;;;9.50;6.47;;;21.80;99.90;;;;;;6300468;28;20154;-81
2021/09/26 14:15:26;;;;;;;8.00;7.10;;;21.70;99.90;;;;;;6299576;28;20398;-81
2021/09/26 14:18:27;;;;;;;7.35;6.68;;;21.60;99.90;;;;;;6283920;28;20055;-80
2021/09/26 14:21:28;;;;;;;9.40;7.10;;;22.00;99.90;;;;;;6298980;28;20023;-82
2021/09/26 14:24:28;;;;;;;8.10;7.30;;;21.70;99.90;;;;;;6284113;28;20035;-83
2021/09/26 14:27:29;;;;;;;7.85;7.07;;;21.70;99.90;;;;;;6283501;28;20138;-83
2021/09/26 14:30:30;;;;;;;7.38;6.68;;;22.10;99.90;;;;;;6300468;28;20119;-80
2021/09/26 14:33:30;;;;;;;7.68;6.75;;;22.70;99.90;;;;;;6300552;28;20106;-80
2021/09/26 14:36:31;;;;;;;7.20;6.50;;;22.90;99.90;;;;;;6299740;28;20366;-83
2021/09/26 14:39:32;;;;;;;7.30;6.55;;;23.20;99.90;;;;;;6317781;28;20107;-86
2021/09/26 14:42:32;;;;;;;7.13;6.43;;;23.20;99.90;;;;;;6300088;28;20363;-84
2021/09/26 14:45:34;;;;;;;8.02;7.22;;;23.20;99.90;;;;;;6299793;28;20032;-83
2021/09/26 14:48:34;;;;;;;7.15;6.45;;;;;;;;;;6265783;28;20028;-86
2021/09/26 14:51:36;;;;;;;6.85;6.20;;;23.50;99.90;;;;;;6299457;28;20028;-87
2021/09/26 14:54:37;;;;;;;9.02;7.45;;;;;;;;;;6299988;28;20470;-86
2021/09/26 14:57:37;;;;;;;7.23;6.17;;;23.20;99.90;;;;;;6317812;28;20031;-82
2021/09/26 15:00:38;;;;;;;8.15;5.85;;;23.00;99.90;;;;;;6299945;28;20024;-85
2021/09/26 15:03:39;;;;;;;8.35;6.30;;;23.00;99.90;;;;;;6282483;28;20024;-84
2021/09/26 15:06:40;;;;;;;6.72;6.13;;;22.90;99.90;;;;;;6282645;28;20028;-83
2021/09/26 15:09:40;;;;;;;6.70;6.00;;;22.80;99.90;;;;;;6299589;28;20130;-86
2021/09/26 15:12:42;;;;;;;9.52;6.88;;;22.60;99.90;;;;;;6265260;28;20055;-84
2021/09/26 15:15:42;;;;;;;8.32;5.90;;;22.40;99.90;;;;;;6245809;28;20366;-83
2021/09/26 15:18:43;;;;;;;6.60;6.00;;;22.40;99.90;;;;;;6264575;28;20111;-85
2021/09/26 15:21:46;;;;;;;8.48;5.90;;;22.40;99.90;;;;;;6247869;28;20068;-83
2021/09/26 15:24:48;;;;;;;6.95;6.25;;;22.50;99.90;;;;;;6263714;28;20051;-82
2021/09/26 15:27:51;;;;;;;7.43;6.63;;;21.80;99.90;;;;;;6246927;28;20021;-82
2021/09/26 15:30:52;;;;;;;7.38;6.68;;;22.10;99.90;;;;;;6264549;28;20395;-81
2021/09/26 15:33:55;;;;;;;6.63;5.93;;;21.90;99.90;;;;;;6251668;28;20024;-81
2021/09/26 15:36:56;;;;;;;7.30;6.60;;;21.70;99.90;;;;;;6253501;28;20459;-83
2021/09/26 15:39:56;;;;;;;7.60;6.80;;;21.60;99.90;;;;;;6269782;28;20102;-83
2021/09/26 15:42:57;;;;;;;8.38;6.78;;;21.40;99.90;;;;;;6269147;28;20036;-84
2021/09/26 15:45:59;;;;;;;8.05;7.22;;;21.30;99.90;;;;;;6270016;28;20071;-81
2021/09/26 15:49:00;;;;;;;7.63;6.93;;;21.20;99.90;;;;;;6286504;28;20104;-83
2021/09/26 15:52:00;;;;;;;7.63;6.93;;;21.10;99.90;;;;;;6285716;28;20051;-84
2021/09/26 15:55:02;;;;;;;8.48;6.97;;;21.10;99.90;;;;;;6253747;28;20853;-85
2021/09/26 15:58:02;;;;;;;7.85;6.95;;;21.10;99.90;;;;;;6268571;28;20096;-81
2021/09/26 16:01:03;;;;;;;7.65;6.93;;;21.00;99.90;;;;;;6270279;28;20033;-82
2021/09/26 16:04:04;;;;;;;8.50;7.75;;;20.90;99.90;;;;;;6251290;28;20032;-79
2021/09/26 16:07:04;;;;;;;8.35;7.53;;;20.90;99.90;;;;;;6270394;28;20127;-81
2021/09/26 16:10:06;;;;;;;7.68;6.93;;;20.90;99.90;;;;;;6271574;28;20112;-80
2021/09/26 16:13:39;;;;;;;8.55;7.75;;;20.80;99.90;;;;;;6287128;28;20416;-82
2021/09/26 16:16:40;;;;;;;8.82;7.93;;;20.80;99.90;;;;;;6193746;28;20042;-79
2021/09/26 16:19:42;;;;;;;8.27;7.35;;;20.80;99.90;;;;;;6178333;28;20477;-81
2021/09/26 16:22:44;;;;;;;8.10;7.22;;;20.80;99.90;;;;;;6178067;28;20038;-83
2021/09/26 16:25:46;;;;;;;8.95;7.47;;;20.80;99.90;;;;;;6180184;28;20400;-81
2021/09/26 16:28:46;;;;;;;9.90;7.85;;;20.70;99.90;;;;;;6177288;28;20388;-83
2021/09/26 16:31:47;;;;;;;11.05;8.68;;;20.60;99.90;;;;;;6176483;28;20041;-83
2021/09/26 16:34:48;;;;;;;15.57;9.73;;;18.80;99.90;;;;;;6174716;28;20491;-83
2021/09/26 16:37:48;;;;;;;11.88;9.20;;;20.50;99.90;;;;;;6159438;28;20420;-82
2021/09/26 16:40:49;;;;;;;9.77;8.73;;;20.40;99.90;;;;;;6176131;28;20018;-81
2021/09/26 16:43:50;;;;;;;8.82;7.93;;;19.80;99.90;;;;;;6175900;28;20038;-84
2021/09/26 16:46:50;;;;;;;12.00;8.32;;;20.20;99.90;;;;;;6176132;28;20076;-83
2021/09/26 16:49:51;;;;;;;10.25;8.98;;;20.10;99.90;;;;;;6193191;28;20037;-83
2021/09/26 16:52:52;;;;;;;9.57;8.63;;;20.10;99.90;;;;;;6294990;28;20040;-82
2021/09/26 16:55:52;;;;;;;9.65;8.60;;;20.00;99.90;;;;;;6302710;28;20039;-82
2021/09/26 16:58:54;;;;;;;9.07;8.18;;;19.90;99.90;;;;;;6285830;28;20027;-81
2021/09/26 17:01:54;;;;;;;10.05;8.38;;;19.80;99.90;;;;;;6302313;28;20031;-83
2021/09/26 17:04:55;;;;;;;12.10;8.98;;;19.60;99.90;;;;;;6302452;28;20366;-82
2021/09/26 17:07:56;;;;;;;11.82;9.18;;;19.50;99.90;;;;;;6320503;28;20107;-82
2021/09/26 17:10:56;;;;;;;9.80;8.77;;;19.30;99.90;;;;;;6285000;28;20541;-82
2021/09/26 17:13:57;;;;;;;10.00;8.18;;;;;;;;;;6301728;28;20020;-81
2021/09/26 17:16:58;;;;;;;9.68;8.68;;;19.10;99.90;;;;;;6296341;28;20024;-82
2021/09/26 17:19:59;;;;;;;10.52;9.10;;;18.90;99.90;;;;;;6303383;28;20032;-81
2021/09/26 17:22:59;;;;;;;10.27;9.20;;;18.80;99.90;;;;;;6285624;28;20444;-86
2021/09/26 17:26:00;;;;;;;10.48;9.38;;;19.00;99.90;;;;;;6283618;28;20067;-83
2021/09/26 17:29:01;;;;;;;11.15;8.55;;;18.50;99.90;;;;;;6285293;28;20027;-86
2021/09/26 17:32:02;;;;;;;10.77;8.43;;;;;;;;;;6283361;28;20135;-83
2021/09/26 17:35:04;;;;;;;12.35;9.32;;;;;;;;;;6299640;28;20130;-82
2021/09/26 17:38:05;;;;;;;12.02;9.43;;;18.20;99.90;;;;;;6284548;28;20450;-83
2021/09/26 17:41:06;;;;;;;10.40;8.60;;;;;;;;;;6300748;28;20032;-81
2021/09/26 17:44:07;;;;;;;10.07;9.05;;;;;;;;;;6318966;28;20254;-81
2021/09/26 17:47:08;;;;;;;10.57;9.48;;;18.00;99.90;;;;;;6318613;28;20062;-83
2021/09/26 17:50:09;;;;;;;10.48;9.38;;;17.60;99.90;;;;;;6300108;28;20358;-82
2021/09/26 17:53:12;;;;;;;12.20;10.90;;;17.70;99.90;;;;;;6294752;28;20043;-83
2021/09/26 17:56:13;;;;;;;13.63;9.50;;;17.50;99.90;;;;;;6270336;28;20494;-82
2021/09/26 17:59:14;;;;;;;10.25;9.13;;;;;;;;;;6299407;28;20027;-81
2021/09/26 18:02:16;;;;;;;10.40;9.30;;;17.40;99.90;;;;;;6319010;28;20032;-83
2021/09/26 18:05:17;;;;;;;10.90;9.77;;;17.10;99.90;;;;;;6281215;28;20129;-82
2021/09/26 18:08:17;;;;;;;11.93;10.15;;;17.10;99.90;;;;;;6300624;28;20028;-82
2021/09/26 18:11:18;;;;;;;10.95;9.85;;;17.10;99.90;;;;;;6282392;28;20872;-83
2021/09/26 18:14:19;;;;;;;11.45;9.98;;;17.10;99.90;;;;;;6300458;28;20458;-85
2021/09/26 18:17:19;;;;;;;11.80;10.57;;;17.00;99.90;;;;;;6300974;28;20032;-83
2021/09/26 18:20:28;;;;;;;11.77;9.65;;;17.00;99.90;;;;;;6283644;28;20082;-86
2021/09/26 18:23:31;;;;;;;14.60;11.25;;;16.90;99.90;;;;;;6284045;28;20038;-84
2021/09/26 18:26:32;;;;;;;13.25;10.82;;;16.80;99.90;;;;;;6267638;28;20466;-84
2021/09/26 18:29:33;;;;;;;12.98;11.68;;;16.80;99.90;;;;;;6267444;28;20074;-86
2021/09/26 18:32:35;;;;;;;12.23;10.50;;;16.60;99.90;;;;;;6262818;28;20035;-87
2021/09/26 18:35:36;;;;;;;11.90;10.52;;;16.60;99.90;;;;;;6281304;28;20039;-85
2021/09/26 18:38:37;;;;;;;12.15;10.85;;;16.50;99.90;;;;;;6266748;28;20040;-85
2021/09/26 18:41:42;;;;;;;12.20;10.93;;;16.40;99.90;;;;;;6267929;28;20032;-87
2021/09/26 18:44:43;;;;;;;14.70;11.45;;;16.50;99.90;;;;;;6267206;28;20335;-85
2021/09/26 18:47:43;;;;;;;12.45;10.88;;;16.30;99.90;;;;;;6264548;28;20050;-82
2021/09/26 18:50:44;;;;;;;11.98;10.77;;;16.30;99.90;;;;;;6282160;28;20127;-84
2021/09/26 18:53:45;;;;;;;13.80;11.45;;;16.30;99.90;;;;;;6282668;28;20346;-84
2021/09/26 18:56:46;;;;;;;12.57;10.82;;;16.30;99.90;;;;;;6279582;28;20382;-86
2021/09/26 18:59:46;;;;;;;12.18;10.70;;;16.30;99.90;;;;;;6265425;28;20399;-83
2021/09/26 19:02:47;;;;;;;14.10;10.60;;;16.20;99.90;;;;;;6283049;28;20112;-82
2021/09/26 19:05:50;;;;;;;12.82;11.52;;;16.10;99.90;;;;;;6282996;28;20035;-84
2021/09/26 19:08:50;;;;;;;15.35;11.23;;;15.90;99.90;;;;;;6283163;28;20338;-83
2021/09/26 19:11:52;;;;;;;12.63;11.38;;;15.80;99.90;;;;;;6299474;28;20044;-84
2021/09/26 19:14:53;;;;;;;12.50;11.20;;;15.70;99.90;;;;;;6266265;28;20024;-84
2021/09/26 19:17:53;;;;;;;12.57;11.27;;;15.70;99.90;;;;;;6265624;28;20031;-84
2021/09/26 19:20:54;;;;;;;15.77;11.85;;;15.60;99.90;;;;;;6265848;28;20047;-83
2021/09/26 19:23:55;;;;;;;15.50;11.30;;;15.60;99.90;;;;;;6299022;28;20031;-83
2021/09/26 19:26:56;;;;;;;13.23;10.73;;;15.60;99.90;;;;;;6282101;28;20054;-84
2021/09/26 19:29:59;;;;;;;13.20;11.70;;;15.60;99.90;;;;;;6299668;28;20825;-83
2021/09/26 19:32:59;;;;;;;12.48;11.18;;;15.60;99.90;;;;;;6299519;28;20044;-84
2021/09/26 19:36:01;;;;;;;15.48;12.20;;;15.40;99.90;;;;;;6282274;28;20031;-82
2021/09/26 19:39:05;;;;;;;14.20;12.60;;;15.50;99.90;;;;;;6282061;28;20016;-83
2021/09/26 19:42:06;;;;;;;12.75;11.15;;;15.40;99.90;;;;;;6282739;28;20890;-83
2021/09/26 19:45:07;;;;;;;12.20;10.57;;;15.70;99.90;;;;;;6282741;28;20025;-82
2021/09/26 19:48:08;;;;;;;14.63;11.43;;;15.40;99.90;;;;;;6281980;28;20024;-82
2021/09/26 19:51:09;;;;;;;15.93;11.27;;;15.30;99.90;;;;;;6298279;28;20119;-83
2021/09/26 19:54:09;;;;;;;15.20;12.18;;;15.30;99.90;;;;;;6271123;28;20036;-83
2021/09/26 19:57:10;;;;;;;16.80;12.45;;;15.30;99.90;;;;;;6263841;28;20028;-82
2021/09/26 20:00:12;;;;;;;13.68;11.68;;;14.80;99.90;;;;;;6281445;28;20020;-82
2021/09/26 20:03:13;;;;;;;14.25;12.13;;;14.70;99.90;;;;;;6299253;28;20421;-83
2021/09/26 20:06:14;;;;;;;14.63;12.63;;;14.90;99.90;;;;;;6299372;28;20028;-82
2021/09/26 20:09:16;;;;;;;14.07;12.38;;;14.70;99.90;;;;;;6282192;28;20024;-82
2021/09/26 20:12:17;;;;;;;13.88;11.95;;;15.00;99.90;;;;;;6298609;28;20113;-83
2021/09/26 20:15:29;;;;;;;14.65;13.10;;;15.10;99.90;;;;;;6282412;28;20028;-83
2021/09/26 20:18:30;;;;;;;;;;;14.80;99.90;;;;;;6301024;28;20116;-84
2021/09/26 20:21:31;;;;;;;14.68;11.52;;;;;;;;;;6284535;28;20353;-84
2021/09/26 20:24:32;;;;;;;16.35;12.05;;;14.70;99.90;;;;;;6300571;28;20482;-83
2021/09/26 20:27:33;;;;;;;14.43;12.55;;;14.80;99.90;;;;;;6286130;28;20016;-83
2021/09/26 20:30:34;;;;;;;14.48;12.23;;;;;;;;;;6320753;28;20020;-83
2021/09/26 20:33:35;;;;;;;19.02;12.60;;;;;;;;;;6302692;28;20120;-82
2021/09/26 20:36:36;;;;;;;14.23;12.18;;;14.00;99.90;;;;;;6285763;28;20009;-84
2021/09/26 20:39:39;;;;;;;15.68;11.80;;;14.80;99.90;;;;;;6268787;28;20432;-85
2021/09/26 20:42:41;;;;;;;15.05;12.70;;;15.00;99.90;;;;;;6253790;28;20031;-86
2021/09/26 20:45:42;;;;;;;13.35;11.93;;;14.70;99.90;;;;;;6286114;28;20097;-84
2021/09/26 20:48:46;;;;;;;14.40;12.52;;;14.50;99.90;;;;;;6285243;28;20039;-84
2021/09/26 20:51:46;;;;;;;13.38;11.98;;;14.20;99.90;;;;;;6268459;28;20050;-84
2021/09/26 20:54:48;;;;;;;16.67;12.45;;;14.60;99.90;;;;;;6302626;28;20020;-84
2021/09/26 20:57:48;;;;;;;15.70;12.15;;;14.80;99.90;;;;;;6285181;28;20051;-83
2021/09/26 21:00:49;;;;;;;13.25;11.82;;;14.50;99.90;;;;;;6267712;28;20020;-84
2021/09/26 21:03:50;;;;;;;13.15;11.75;;;14.20;99.90;;;;;;6285126;28;20012;-85
2021/09/26 21:06:50;;;;;;;13.75;11.68;;;14.40;99.90;;;;;;6267394;28;20106;-85
2021/09/26 21:09:51;;;;;;;16.67;12.25;;;;;;;;;;6284588;28;20032;-84
2021/09/26 21:12:53;;;;;;;16.80;11.75;;;14.40;99.90;;;;;;6301109;28;20528;-85
2021/09/26 21:15:54;;;;;;;15.50;12.88;;;;;;;;;;6268102;28;20020;-85
2021/09/26 21:18:55;;;;;;;15.63;11.93;;;14.30;99.90;;;;;;6302097;28;20016;-84
2021/09/26 21:21:56;;;;;;;14.40;12.32;;;;;;;;;;6285402;28;20028;-85
2021/09/26 21:24:57;;;;;;;15.88;12.32;;;14.40;99.90;;;;;;6284579;28;20032;-85
2021/09/26 21:27:57;;;;;;;14.32;12.45;;;14.20;99.90;;;;;;6267682;28;20512;-85
2021/09/26 21:30:58;;;;;;;15.98;12.43;;;;;;;;;;6268731;28;20071;-85
2021/09/26 21:33:59;;;;;;;14.18;12.32;;;14.10;99.90;;;;;;6319957;28;20023;-85
2021/09/26 21:36:59;;;;;;;14.60;11.93;;;14.30;99.90;;;;;;6268252;28;20051;-85
2021/09/26 21:40:00;;;;;;;16.25;12.68;;;;;;;;;;6285187;28;20103;-86
2021/09/26 21:43:01;;;;;;;18.38;13.27;;;14.10;99.90;;;;;;6284493;28;20016;-85
2021/09/26 21:46:02;;;;;;;17.98;12.13;;;;;;;;;;6284768;28;20481;-85
2021/09/26 21:49:03;;;;;;;17.20;12.55;;;14.10;99.90;;;;;;6301454;28;20028;-85
2021/09/26 21:52:04;;;;;;;16.27;13.38;;;14.40;99.90;;;;;;6284714;28;20427;-85
2021/09/26 21:55:05;;;;;;;15.75;13.23;;;13.90;99.90;;;;;;6267842;28;20020;-85
2021/09/26 21:58:06;;;;;;;14.63;12.43;;;14.00;99.90;;;;;;6284847;28;20028;-85
2021/09/26 22:01:08;;;;;;;14.05;11.98;;;14.30;99.90;;;;;;6268282;28;20580;-85
2021/09/26 22:04:08;;;;;;;14.82;12.07;;;14.00;99.90;;;;;;6267995;28;20623;-85
2021/09/26 22:07:09;;;;;;;14.68;12.07;;;14.10;99.90;;;;;;6284657;28;20238;-85
2021/09/26 22:10:10;;;;;;;14.77;13.05;;;14.10;99.90;;;;;;6266996;28;20034;-85
2021/09/26 22:13:11;;;;;;;15.30;12.25;;;14.30;99.90;;;;;;6284569;28;20028;-86
2021/09/26 22:16:13;;;;;;;14.02;12.35;;;14.20;99.90;;;;;;6267932;28;20035;-86
2021/09/26 22:19:13;;;;;;;16.42;13.52;;;14.20;99.90;;;;;;6267742;28;20139;-85
2021/09/26 22:22:14;;;;;;;15.30;13.23;;;14.20;99.90;;;;;;6267523;28;20036;-85
2021/09/26 22:25:17;;;;;;;15.38;12.43;;;14.20;99.90;;;;;;6284048;28;20082;-85
2021/09/26 22:28:19;;;;;;;15.82;11.98;;;14.10;99.90;;;;;;6267415;28;20115;-85
2021/09/26 22:31:20;;;;;;;16.10;13.38;;;;;;;;;;6266710;28;20050;-85
2021/09/26 22:34:21;;;;;;;17.13;13.32;;;14.30;99.90;;;;;;6300683;28;20076;-85
2021/09/26 22:37:22;;;;;;;14.98;12.57;;;14.40;99.90;;;;;;6267250;28;20488;-85
2021/09/26 22:40:24;;;;;;;19.63;13.43;;;;;;;;;;6283884;28;20028;-86
2021/09/26 22:43:25;;;;;;;15.15;13.00;;;;;;;;;;6283393;28;20024;-86
2021/09/26 22:46:26;;;;;;;15.50;12.73;;;14.50;99.90;;;;;;6300533;28;20028;-86
2021/09/26 22:49:27;;;;;;;14.05;12.43;;;14.50;99.90;;;;;;6283821;28;20669;-86
2021/09/26 22:52:28;;;;;;;14.65;13.10;;;14.60;99.90;;;;;;6266445;28;20032;-84
2021/09/26 22:55:32;;;;;;;14.98;12.57;;;14.60;99.90;;;;;;6266813;28;20569;-85
2021/09/26 22:58:32;;;;;;;13.82;12.10;;;14.50;99.90;;;;;;6266429;28;20675;-86